Time;durP1;ratioP1;P1;durP2;ratioP2;P2;SDS_P1;SDS_P2;PMS_P1;PMS_P2;Temp;Humidity;BMP_temperature;BMP_pressure;BME280_temperature;BME280_humidity;BME280_pressure;Samples;Min_cycle;Max_cycle;Signal;HPM_P1;HPM_P2
2022/06/23 00:02:19;;;;;;;21.17;17.70;;;;;;;19.04;100.00;97760.56;5052702;28;20234;-71
2022/06/23 00:04:48;;;;;;;19.47;15.97;;;;;;;18.96;100.00;97755.16;5052633;28;20216;-71
2022/06/23 00:07:18;;;;;;;19.13;15.63;;;;;;;18.90;100.00;97761.19;5050964;28;20289;-71
2022/06/23 00:09:49;;;;;;;21.30;16.80;;;;;;;18.80;100.00;97749.81;5052277;28;20211;-71
2022/06/23 00:12:29;;;;;;;19.17;16.30;;;;;;;18.73;100.00;97761.34;5052068;28;20210;-71
2022/06/23 00:15:16;;;;;;;17.97;15.73;;;;;;;18.68;100.00;97758.31;5049396;28;20216;-71
2022/06/23 00:17:45;;;;;;;20.27;17.10;;;;;;;18.64;100.00;97755.16;5052376;28;20222;-70
2022/06/23 00:20:15;;;;;;;19.57;16.70;;;;;;;18.61;100.00;97752.81;5052340;28;20208;-70
2022/06/23 00:22:47;;;;;;;19.30;16.07;;;;;;;18.58;100.00;97753.13;5052036;28;20217;-71
2022/06/23 00:25:30;;;;;;;19.40;16.23;;;;;;;18.52;100.00;97748.44;5041599;28;20219;-72
2022/06/23 00:27:58;;;;;;;19.83;16.07;;;;;;;18.48;100.00;97752.44;5052148;28;20244;-71
2022/06/23 00:30:36;;;;;;;19.73;16.00;;;;;;;18.44;100.00;97751.09;5052090;28;20209;-71
2022/06/23 00:33:07;;;;;;;20.80;17.13;;;;;;;18.40;100.00;97743.56;5039328;28;20217;-71
2022/06/23 00:35:34;;;;;;;19.87;16.40;;;;;;;18.38;100.00;97743.72;5051787;28;20582;-71
2022/06/23 00:38:00;;;;;;;20.47;16.67;;;;;;;18.36;100.00;97739.53;5051792;28;20244;-71
2022/06/23 00:40:27;;;;;;;24.20;18.03;;;;;;;18.37;100.00;97742.06;5051551;28;20212;-71
2022/06/23 00:42:56;;;;;;;22.60;17.37;;;;;;;18.35;100.00;97748.56;5051908;28;20213;-71
2022/06/23 00:45:31;;;;;;;21.67;17.97;;;;;;;18.35;100.00;97740.53;5052230;28;20212;-71
2022/06/23 00:48:02;;;;;;;20.83;17.30;;;;;;;18.34;100.00;97741.56;5051620;28;20708;-71
2022/06/23 00:50:33;;;;;;;21.00;16.80;;;;;;;18.31;100.00;97749.88;5053181;28;20561;-71
2022/06/23 00:53:05;;;;;;;21.00;17.50;;;;;;;18.28;100.00;97744.84;5052829;28;20255;-71
2022/06/23 00:55:42;;;;;;;22.30;16.47;;;;;;;18.23;100.00;97747.97;5052955;28;20212;-71
2022/06/23 00:58:23;;;;;;;22.50;17.43;;;;;;;18.22;100.00;97745.50;5048807;28;20216;-71
2022/06/23 01:00:54;;;;;;;21.97;17.63;;;;;;;18.21;100.00;97750.00;5043520;28;20215;-71
2022/06/23 01:03:25;;;;;;;21.73;17.97;;;;;;;18.20;100.00;97759.03;5052849;28;20216;-71
2022/06/23 01:05:57;;;;;;;21.50;18.30;;;;;;;18.21;100.00;97763.38;5047928;28;20591;-71
2022/06/23 01:08:30;;;;;;;22.90;19.07;;;;;;;18.21;100.00;97754.50;5050418;28;20240;-71
2022/06/23 01:11:02;;;;;;;20.70;17.67;;;;;;;18.23;100.00;97747.97;5052648;28;20216;-71
2022/06/23 01:13:35;;;;;;;22.63;18.13;;;;;;;18.23;100.00;97742.63;5052631;28;20216;-71
2022/06/23 01:16:08;;;;;;;20.97;17.77;;;;;;;18.29;100.00;97752.69;5052709;28;20216;-71
2022/06/23 01:18:39;;;;;;;22.23;17.97;;;;;;;18.18;100.00;97749.47;5052696;28;20222;-72
2022/06/23 01:21:13;;;;;;;18.60;16.53;;;;;;;18.04;100.00;97745.59;5052761;28;20262;-72
2022/06/23 01:24:06;;;;;;;18.13;16.23;;;;;;;17.94;100.00;97763.59;5048387;28;20216;-72
2022/06/23 01:26:57;;;;;;;18.33;16.07;;;;;;;17.93;100.00;97779.81;5042752;28;20643;-72
2022/06/23 01:29:30;;;;;;;19.13;15.57;;;;;;;17.91;100.00;97785.31;5052365;28;20696;-72
2022/06/23 01:32:04;;;;;;;17.77;15.50;;;;;;;17.92;100.00;97776.28;5052334;28;20212;-72
2022/06/23 01:34:46;;;;;;;20.43;16.87;;;;;;;17.92;100.00;97786.97;5052522;28;20234;-72
2022/06/23 01:37:18;;;;;;;23.00;18.53;;;;;;;17.96;100.00;97788.34;5052120;28;20216;-72
2022/06/23 01:39:49;;;;;;;22.13;18.43;;;;;;;18.02;100.00;97786.84;5052279;28;20234;-72
2022/06/23 01:42:25;;;;;;;21.83;17.40;;;;;;;18.00;100.00;97778.16;5052612;28;20218;-73
2022/06/23 01:45:02;;;;;;;23.90;18.57;;;;;;;18.02;100.00;97795.72;5052325;28;20216;-72
2022/06/23 01:47:35;;;;;;;22.13;17.60;;;;;;;18.00;100.00;97788.84;5052482;28;20231;-72
2022/06/23 01:50:26;;;;;;;21.80;18.30;;;;;;;17.96;100.00;97788.34;5052014;28;20677;-72
2022/06/23 01:53:14;;;;;;;26.63;19.13;;;;;;;17.92;100.00;97791.50;5052223;28;20220;-73
2022/06/23 01:55:59;;;;;;;22.67;18.97;;;;;;;17.97;100.00;97783.81;5041626;28;20223;-72
2022/06/23 01:58:33;;;;;;;24.20;17.97;;;;;;;17.93;100.00;97782.47;5052308;28;20216;-74
2022/06/23 02:01:04;;;;;;;19.77;17.13;;;;;;;17.88;100.00;97788.31;5048438;28;20216;-73
2022/06/23 02:03:35;;;;;;;22.57;18.00;;;;;;;17.85;100.00;97796.63;5041371;28;20559;-73
2022/06/23 02:06:13;;;;;;;18.53;16.53;;;;;;;17.81;100.00;97795.25;5052175;28;20223;-74
2022/06/23 02:08:48;;;;;;;23.30;16.90;;;;;;;17.83;100.00;97787.09;5051889;28;20631;-72
2022/06/23 02:11:21;;;;;;;21.00;17.10;;;;;;;17.86;100.00;97787.63;5052121;28;20266;-73
2022/06/23 02:13:52;;;;;;;23.67;18.90;;;;;;;17.86;100.00;97776.09;5052237;28;20212;-73
2022/06/23 02:16:27;;;;;;;23.43;18.03;;;;;;;17.86;100.00;97768.91;5051450;28;20224;-73
2022/06/23 02:19:00;;;;;;;24.50;19.30;;;;;;;17.92;100.00;97770.94;5051493;28;20217;-73
2022/06/23 02:21:32;;;;;;;25.23;19.53;;;;;;;17.93;100.00;97783.28;5055656;28;20219;-73
2022/06/23 02:24:03;;;;;;;22.10;17.93;;;;;;;17.90;100.00;97778.28;5055520;28;20270;-73
2022/06/23 02:26:35;;;;;;;23.20;18.80;;;;;;;17.89;100.00;97789.97;5050941;28;20665;-73
2022/06/23 02:29:07;;;;;;;22.77;18.87;;;;;;;17.88;100.00;97782.97;5044289;28;20286;-73
2022/06/23 02:31:42;;;;;;;22.23;18.77;;;;;;;17.89;100.00;97791.81;5055454;28;20704;-74
2022/06/23 02:34:16;;;;;;;21.83;18.27;;;;;;;17.88;100.00;97787.47;5055328;28;20211;-73
2022/06/23 02:37:08;;;;;;;21.73;17.97;;;;;;;17.82;100.00;97786.28;5055505;28;20208;-74
2022/06/23 02:39:45;;;;;;;20.00;16.63;;;;;;;17.78;100.00;97784.06;5055538;28;20218;-74
2022/06/23 02:42:25;;;;;;;20.57;16.63;;;;;;;17.68;100.00;97789.50;5055214;28;20321;-72
2022/06/23 02:45:13;;;;;;;18.53;15.93;;;;;;;17.64;100.00;97796.19;5044133;28;20274;-73
2022/06/23 02:47:57;;;;;;;19.77;16.33;;;;;;;17.61;100.00;97804.50;5055124;28;20243;-72
2022/06/23 02:50:45;;;;;;;20.70;16.23;;;;;;;17.61;100.00;97803.69;5053013;28;20239;-73
2022/06/23 02:53:27;;;;;;;20.43;15.13;;;;;;;17.65;100.00;97805.88;5054747;28;20674;-73
2022/06/23 02:56:30;;;;;;;19.23;15.33;;;;;;;17.64;100.00;97804.22;5055030;28;20323;-72
2022/06/23 02:59:02;;;;;;;15.77;14.00;;;;;;;17.58;100.00;97804.84;5046807;28;20222;-73
2022/06/23 03:01:35;;;;;;;14.83;13.27;;;;;;;17.54;100.00;97814.16;5054920;28;20243;-74
2022/06/23 03:04:11;;;;;;;14.40;12.37;;;;;;;17.50;100.00;97812.78;5054979;28;20208;-74
2022/06/23 03:06:44;;;;;;;14.40;12.87;;;;;;;17.50;100.00;97822.66;5054665;28;20208;-74
2022/06/23 03:09:18;;;;;;;14.10;12.67;;;;;;;17.52;100.00;97816.16;5053162;28;20212;-75
2022/06/23 03:11:53;;;;;;;15.00;11.87;;;;;;;17.52;100.00;97816.16;5052676;28;20585;-74
2022/06/23 03:14:28;;;;;;;13.17;11.73;;;;;;;17.50;100.00;97812.78;5044008;28;20219;-75
2022/06/23 03:16:59;;;;;;;14.30;12.27;;;;;;;17.51;100.00;97811.81;5054411;28;20211;-74
2022/06/23 03:19:33;;;;;;;15.77;13.40;;;;;;;17.54;100.00;97813.31;5054611;28;20226;-75
2022/06/23 03:22:07;;;;;;;16.37;14.53;;;;;;;17.61;100.00;97820.53;5054316;28;20504;-72
2022/06/23 03:24:39;;;;;;;20.80;15.70;;;;;;;17.67;100.00;97821.78;5054490;28;20247;-74
2022/06/23 03:27:13;;;;;;;19.07;15.50;;;;;;;17.71;100.00;97815.09;5053993;28;20212;-74
2022/06/23 03:29:45;;;;;;;19.37;15.30;;;;;;;17.75;100.00;97809.25;5054366;28;20215;-74
2022/06/23 03:32:22;;;;;;;20.93;15.63;;;;;;;17.77;100.00;97815.31;5053199;28;20212;-74
2022/06/23 03:34:57;;;;;;;16.80;14.90;;;;;;;17.83;100.00;97820.03;5037420;28;20593;-74
2022/06/23 03:37:30;;;;;;;14.77;13.27;;;;;;;17.88;100.00;97822.22;5050057;28;20254;-74
2022/06/23 03:43:08;;;;;;;14.87;13.07;;;;;;;17.91;100.00;97837.97;4990974;28;20225;-72
2022/06/23 03:45:39;;;;;;;16.47;14.37;;;;;;;17.93;100.00;97841.31;5052651;28;20222;-75
2022/06/23 03:48:10;;;;;;;19.20;14.07;;;;;;;17.96;100.00;97836.47;5053670;28;20243;-74
2022/06/23 03:50:46;;;;;;;17.17;15.23;;;;;;;18.02;100.00;97840.34;5053992;28;20298;-75
2022/06/23 03:53:17;;;;;;;17.33;14.83;;;;;;;18.06;100.00;97837.22;5053601;28;20630;-74
2022/06/23 03:55:49;;;;;;;16.27;14.37;;;;;;;18.09;100.00;97846.72;5053940;28;20208;-74
2022/06/23 03:58:20;;;;;;;14.23;12.73;;;;;;;18.10;100.00;97845.75;5053590;28;20307;-74
2022/06/23 04:00:57;;;;;;;14.63;12.90;;;;;;;18.12;100.00;97841.91;5051798;28;20227;-75
2022/06/23 04:03:30;;;;;;;17.20;13.40;;;;;;;18.12;100.00;97847.28;5053756;28;20218;-74
2022/06/23 04:06:32;;;;;;;16.77;12.57;;;;;;;18.13;100.00;97848.94;5053497;28;20270;-74
2022/06/23 04:09:02;;;;;;;12.80;11.50;;;;;;;18.16;100.00;97837.91;5049004;28;20708;-75
2022/06/23 04:11:45;;;;;;;11.97;10.63;;;;;;;18.06;100.00;97847.91;5053500;28;20696;-74
2022/06/23 04:14:17;;;;;;;12.37;11.17;;;;;;;18.04;100.00;97849.88;5053309;28;20685;-75
2022/06/23 04:16:45;;;;;;;11.87;10.67;;;;;;;18.06;100.00;97847.91;5049659;28;20670;-75
2022/06/23 04:19:19;;;;;;;13.47;11.83;;;;;;;18.09;100.00;97852.06;5053165;28;20219;-74
2022/06/23 04:21:50;;;;;;;12.10;10.63;;;;;;;18.12;100.00;97857.13;5053463;28;20550;-75
2022/06/23 04:24:20;;;;;;;12.97;11.27;;;;;;;18.16;100.00;97848.59;5053237;28;20589;-75
2022/06/23 04:26:52;;;;;;;14.10;11.17;;;;;;;18.23;100.00;97849.63;5052474;28;20659;-75
2022/06/23 04:29:25;;;;;;;14.27;11.20;;;;;;;18.29;100.00;97853.53;5053364;28;20241;-75
2022/06/23 04:31:55;;;;;;;12.67;10.97;;;;;;;18.35;100.00;97851.06;5053372;28;20216;-75
2022/06/23 04:34:25;;;;;;;16.23;11.77;;;;;;;18.38;100.00;97850.75;5052998;28;20294;-75
2022/06/23 04:36:54;;;;;;;15.57;11.13;;;;;;;18.39;100.00;97847.06;5041573;28;20689;-75
2022/06/23 04:39:27;;;;;;;15.17;12.07;;;;;;;18.39;100.00;97849.75;5052836;28;20223;-75
2022/06/23 04:41:59;;;;;;;14.40;11.97;;;;;;;18.42;100.00;97848.59;5052704;28;20226;-75
2022/06/23 04:44:29;;;;;;;17.07;13.53;;;;;;;18.43;100.00;97856.47;5052802;28;20215;-75
2022/06/23 04:47:00;;;;;;;16.83;14.03;;;;;;;18.45;100.00;97859.81;5052938;28;20212;-75
2022/06/23 04:49:32;;;;;;;18.10;14.00;;;;;;;18.46;100.00;97866.03;5052525;28;20232;-75
2022/06/23 04:52:04;;;;;;;18.97;13.77;;;;;;;18.45;100.00;97862.50;5052845;28;20216;-74
2022/06/23 04:54:36;;;;;;;17.77;13.23;;;;;;;18.44;100.00;97857.28;5051112;28;20218;-76
2022/06/23 04:57:09;;;;;;;17.00;12.23;;;;;;;18.43;100.00;97850.28;5052760;28;20212;-76
2022/06/23 04:59:40;;;;;;;14.87;12.40;;;;;;;18.59;100.00;97859.19;5052519;28;20215;-75
2022/06/23 05:02:27;;;;;;;17.43;13.47;;;;;;;18.97;100.00;97852.44;5052806;28;20586;-75
2022/06/23 05:05:01;;;;;;;18.90;16.30;;;;;;;19.38;100.00;97846.97;5052701;28;20666;-75
2022/06/23 05:07:33;;;;;;;18.83;15.77;;;;;;;19.67;100.00;97847.31;5052709;28;20212;-76
2022/06/23 05:10:06;;;;;;;25.63;19.63;;;;;;;20.50;100.00;97833.38;5052721;28;20215;-76
2022/06/23 05:12:36;;;;;;;25.33;19.90;;;;;;;21.29;100.00;97820.47;5052751;28;20212;-76
2022/06/23 05:15:13;;;;;;;22.43;17.27;;;;;;;21.94;100.00;97809.97;5053059;28;20214;-76
2022/06/23 05:17:46;;;;;;;15.07;13.47;;;;;;;22.47;100.00;97810.56;5048458;28;20226;-77
2022/06/23 05:20:20;;;;;;;13.53;12.03;;;;;;;22.97;100.00;97794.34;5040593;28;20212;-76
2022/06/23 05:22:49;;;;;;;15.60;11.80;;;;;;;23.36;100.00;97793.94;5052520;28;20256;-78
2022/06/23 05:25:34;;;;;;;16.77;12.97;;;;;;;23.82;100.00;97785.19;5052777;28;20219;-77
2022/06/23 05:28:05;;;;;;;12.97;11.60;;;;;;;24.28;100.00;97783.66;5041544;28;20607;-76
2022/06/23 05:30:35;;;;;;;15.00;12.13;;;;;;;24.68;100.00;97780.09;5052670;28;20219;-76
2022/06/23 05:33:06;;;;;;;11.97;10.77;;;;;;;25.01;100.00;97788.31;5052821;28;20342;-75
2022/06/23 05:35:38;;;;;;;13.03;11.17;;;;;;;25.15;100.00;97815.19;5052414;28;20218;-75
2022/06/23 05:38:10;;;;;;;16.43;11.50;;;;;;;25.13;100.00;97884.91;5052654;28;20639;-75
2022/06/23 05:40:40;;;;;;;13.53;11.10;;;;;;;25.51;100.00;97899.59;5052051;28;20302;-76
2022/06/23 05:43:12;;;;;;;12.73;10.80;;;;;;;26.01;100.00;97907.19;5052074;28;20220;-75
2022/06/23 05:45:42;;;;;;;12.70;11.40;;;;;;;26.43;100.00;97917.59;5050461;28;20220;-75
2022/06/23 05:48:15;;;;;;;12.50;9.73;;;;;;;27.02;100.00;97910.19;5052310;28;20243;-75
2022/06/23 05:50:46;;;;;;;13.83;10.57;;;;;;;27.68;95.68;97914.25;5052521;28;20574;-75
2022/06/23 05:53:21;;;;;;;11.47;10.30;;;;;;;28.13;86.65;97907.69;5052553;28;20208;-75
2022/06/23 05:55:51;;;;;;;11.93;10.20;;;;;;;28.09;84.63;97918.19;5055010;28;20238;-75
2022/06/23 05:58:25;;;;;;;11.07;9.67;;;;;;;27.34;87.71;97917.38;5055901;28;20674;-74
2022/06/23 06:00:57;;;;;;;11.73;10.03;;;;;;;27.17;90.02;97910.78;5044588;28;20219;-74
2022/06/23 06:03:28;;;;;;;12.93;10.67;;;;;;;27.83;85.44;97917.53;5044844;28;20212;-74
2022/06/23 06:05:57;;;;;;;10.77;9.57;;;;;;;28.60;80.84;97912.50;5056284;28;20208;-74
2022/06/23 06:08:29;;;;;;;11.47;9.53;;;;;;;29.18;76.99;97920.06;5055657;28;20240;-75
2022/06/23 06:10:56;;;;;;;12.27;9.97;;;;;;;29.67;74.43;97910.84;5054492;28;20563;-74
2022/06/23 06:13:27;;;;;;;10.90;9.57;;;;;;;29.92;71.65;97911.50;5055926;28;20222;-75
2022/06/23 06:15:57;;;;;;;13.23;10.30;;;;;;;30.01;70.18;97912.84;5056241;28;20216;-74
2022/06/23 06:18:30;;;;;;;10.70;9.60;;;;;;;30.14;70.44;97915.38;5055684;28;20223;-73
2022/06/23 06:21:00;;;;;;;12.93;9.50;;;;;;;30.26;68.80;97921.69;5055989;28;20223;-74
2022/06/23 06:23:38;;;;;;;12.53;9.80;;;;;;;30.35;67.56;97917.53;5055943;28;20208;-74
2022/06/23 06:26:05;;;;;;;12.37;9.63;;;;;;;30.34;68.64;97915.88;5055605;28;20661;-75
2022/06/23 06:28:33;;;;;;;10.37;9.20;;;;;;;30.41;67.49;97922.91;5055799;28;20267;-74
2022/06/23 06:31:07;;;;;;;11.83;9.03;;;;;;;30.47;64.65;97921.94;5055486;28;20208;-74
2022/06/23 06:33:43;;;;;;;12.57;8.80;;;;;;;30.72;65.09;97925.31;5055838;28;20212;-74
2022/06/23 06:36:27;;;;;;;12.90;8.10;;;;;;;30.90;64.03;97916.13;5055854;28;20215;-74
2022/06/23 06:39:01;;;;;;;12.17;8.07;;;;;;;30.78;62.94;97926.25;5043808;28;20247;-74
2022/06/23 06:41:27;;;;;;;10.80;7.73;;;;;;;30.53;65.10;97925.63;5055428;28;20705;-74
2022/06/23 06:43:54;;;;;;;12.13;7.67;;;;;;;30.86;64.89;97925.91;5055397;28;20692;-74
2022/06/23 06:46:21;;;;;;;10.47;8.00;;;;;;;31.15;62.80;97935.81;5055688;28;20218;-74
2022/06/23 06:48:48;;;;;;;12.10;7.73;;;;;;;30.98;64.21;97935.72;5055521;28;20243;-74
2022/06/23 06:51:21;;;;;;;11.00;7.40;;;;;;;29.50;69.82;97937.00;5055157;28;20219;-74
2022/06/23 06:53:51;;;;;;;13.27;8.23;;;;;;;28.46;75.25;97943.59;5054828;28;20212;-74
2022/06/23 06:56:24;;;;;;;11.97;8.30;;;;;;;29.12;73.33;97941.91;5054922;28;20662;-73
2022/06/23 06:58:56;;;;;;;11.20;7.57;;;;;;;30.02;71.25;97937.13;5047041;28;20219;-73
2022/06/23 07:01:24;;;;;;;10.80;7.63;;;;;;;30.71;67.79;97944.63;5054994;28;20238;-74
2022/06/23 07:03:54;;;;;;;8.67;7.10;;;;;;;31.16;65.72;97948.38;5053589;28;20223;-73
2022/06/23 07:06:29;;;;;;;10.93;7.47;;;;;;;31.31;63.34;97940.56;5042974;28;20219;-74
2022/06/23 07:09:02;;;;;;;12.10;6.50;;;;;;;31.06;63.58;97942.72;5055192;28;20239;-74
2022/06/23 07:11:39;;;;;;;11.00;6.33;;;;;;;30.10;68.41;97952.34;5054820;28;20216;-74
2022/06/23 07:14:12;;;;;;;9.17;6.27;;;;;;;29.99;70.21;97942.22;5054817;28;20224;-74
2022/06/23 07:16:43;;;;;;;8.87;6.23;;;;;;;29.67;71.57;97940.81;5055069;28;20219;-74
2022/06/23 07:19:16;;;;;;;9.40;5.57;;;;;;;28.74;74.79;97938.53;5054938;28;20219;-74
2022/06/23 07:21:48;;;;;;;7.67;5.90;;;;;;;27.80;79.40;97945.13;5054851;28;20242;-73
2022/06/23 07:24:19;;;;;;;7.80;6.13;;;;;;;27.26;84.95;97935.78;5054621;28;20208;-73
2022/06/23 07:26:52;;;;;;;8.80;6.57;;;;;;;26.87;87.59;97939.44;5053653;28;20216;-78
2022/06/23 07:29:36;;;;;;;9.10;6.10;;;;;;;26.51;89.88;97939.06;5050347;28;20274;-80
2022/06/23 07:32:17;;;;;;;8.90;5.87;;;;;;;26.08;90.56;97932.41;5043065;28;20848;-75
2022/06/23 07:34:53;;;;;;;7.33;5.77;;;;;;;25.85;90.71;97929.22;5052167;28;20266;-80
2022/06/23 07:37:26;;;;;;;12.27;6.57;;;;;;;25.62;91.61;97923.38;5050275;28;20243;-78
2022/06/23 07:40:00;;;;;;;7.00;5.87;;;;;;;25.54;92.00;97920.84;5052565;28;20270;-78
2022/06/23 07:42:43;;;;;;;6.67;5.77;;;;;;;25.36;93.00;97920.56;5050977;28;20658;-73
2022/06/23 07:45:16;;;;;;;8.30;6.60;;;;;;;25.18;93.37;97922.97;5050650;28;20220;-79
2022/06/23 07:47:43;;;;;;;10.33;6.63;;;;;;;25.12;95.81;97921.06;5051360;28;20887;-78
2022/06/23 07:50:10;;;;;;;10.00;6.37;;;;;;;25.12;98.26;97907.56;5051628;28;20235;-77
2022/06/23 07:52:37;;;;;;;8.23;6.33;;;;;;;25.15;99.08;97917.97;5049843;28;20221;-76
2022/06/23 07:55:04;;;;;;;9.77;5.93;;;;;;;25.14;98.33;97913.63;5051998;28;20662;-75
2022/06/23 07:57:33;;;;;;;10.50;5.53;;;;;;;25.08;95.48;97903.59;5050621;28;20218;-79
2022/06/23 08:00:04;;;;;;;8.37;5.47;;;;;;;24.96;95.70;97905.22;5052415;28;20598;-77
2022/06/23 08:02:36;;;;;;;7.83;5.17;;;;;;;24.93;97.11;97905.59;5048494;28;20235;-80
2022/06/23 08:05:09;;;;;;;8.80;5.20;;;;;;;24.98;99.27;97905.00;5049706;28;20212;-77
2022/06/23 08:07:37;;;;;;;7.37;5.20;;;;;;;25.03;100.00;97889.84;5040014;28;20213;-78
2022/06/23 08:10:09;;;;;;;10.33;5.40;;;;;;;25.09;98.27;97891.75;5050070;28;20247;-79
2022/06/23 08:12:55;;;;;;;10.87;5.63;;;;;;;25.15;97.44;97890.09;5050563;28;20298;-79
2022/06/23 08:18:18;;;;;;;8.07;5.23;;;;;;;25.22;95.61;97888.22;5053143;28;21435;-77
2022/06/23 08:20:52;;;;;;;7.80;5.37;;;;;;;25.21;94.56;97890.13;5053764;28;20651;-76
2022/06/23 08:23:21;;;;;;;13.10;5.60;;;;;;;25.28;96.34;97893.72;5052020;28;20218;-76
2022/06/23 08:25:48;;;;;;;7.23;4.83;;;;;;;25.36;94.05;97890.00;5053260;28;20807;-77
2022/06/23 08:28:17;;;;;;;11.43;5.13;;;;;;;25.42;92.68;97886.47;5053329;28;20216;-77
2022/06/23 08:30:46;;;;;;;9.40;5.30;;;;;;;25.43;91.85;97886.25;5053195;28;20251;-79
2022/06/23 08:33:13;;;;;;;10.23;5.60;;;;;;;25.51;96.14;97888.78;5053200;28;20212;-79
2022/06/23 08:35:43;;;;;;;9.87;5.20;;;;;;;25.62;91.20;97890.03;5053271;28;20215;-79
2022/06/23 08:38:13;;;;;;;8.77;5.03;;;;;;;25.48;86.27;97881.06;5053366;28;20250;-78
2022/06/23 08:41:06;;;;;;;10.47;5.17;;;;;;;25.39;85.33;97876.88;5053381;28;20212;-79
2022/06/23 08:43:42;;;;;;;9.50;5.53;;;;;;;25.31;92.52;97874.34;5049104;28;20219;-78
2022/06/23 08:46:18;;;;;;;10.40;5.27;;;;;;;25.36;93.55;97868.34;5051049;28;20565;-78
2022/06/23 08:48:49;;;;;;;9.03;4.67;;;;;;;25.47;90.19;97865.84;5052601;28;20211;-79
2022/06/23 08:51:22;;;;;;;8.63;4.30;;;;;;;25.53;89.63;97865.03;5052308;28;20219;-79
2022/06/23 08:54:00;;;;;;;7.13;4.07;;;;;;;25.55;87.56;97862.94;5053399;28;20216;-79
2022/06/23 08:56:31;;;;;;;8.67;4.20;;;;;;;25.65;87.87;97860.69;5049408;28;20216;-77
2022/06/23 08:59:09;;;;;;;8.47;4.67;;;;;;;25.72;87.38;97858.00;5046231;28;20220;-77
2022/06/23 09:01:44;;;;;;;7.03;3.83;;;;;;;25.78;82.98;97857.16;5053282;28;20214;-78
2022/06/23 09:04:18;;;;;;;7.07;4.30;;;;;;;25.86;82.72;97860.50;5047964;28;20210;-78
2022/06/23 09:06:52;;;;;;;8.47;4.83;;;;;;;26.01;85.43;97858.44;5052960;28;20216;-78
2022/06/23 09:09:27;;;;;;;6.40;4.30;;;;;;;26.17;83.71;97852.59;5052784;28;20705;-78
2022/06/23 09:12:02;;;;;;;6.50;3.93;;;;;;;26.28;83.37;97853.81;5053190;28;20211;-78
2022/06/23 09:15:13;;;;;;;5.03;2.90;;;;;;;26.30;78.11;97852.56;5052639;28;20215;-78
2022/06/23 09:18:03;;;;;;;7.23;2.70;;;;;;;26.35;75.82;97855.50;5001895;28;20221;-78
2022/06/23 09:20:58;;;;;;;7.17;3.40;;;;;;;26.35;77.39;97843.81;5052888;28;20212;-78
2022/06/23 09:23:43;;;;;;;6.00;3.80;;;;;;;26.43;81.89;97847.13;5049311;28;20212;-78
2022/06/23 09:26:22;;;;;;;7.10;3.47;;;;;;;26.46;78.99;97841.25;5052946;28;20215;-78
2022/06/23 09:28:53;;;;;;;8.57;3.60;;;;;;;26.48;74.49;97841.91;5048524;28;20222;-78
2022/06/23 09:31:29;;;;;;;5.40;3.20;;;;;;;26.37;69.40;97839.00;5053673;28;20212;-78
2022/06/23 09:34:11;;;;;;;6.87;3.40;;;;;;;26.36;75.83;97846.31;5056847;28;20218;-78
2022/06/23 09:37:21;;;;;;;7.27;3.57;;;;;;;26.43;78.83;97847.13;5057270;28;20208;-78
2022/06/23 09:40:15;;;;;;;6.70;3.73;;;;;;;26.42;76.14;97834.63;5053455;28;20559;-78
2022/06/23 09:43:04;;;;;;;7.30;3.63;;;;;;;26.55;78.15;97828.34;5038466;28;20662;-79
2022/06/23 09:45:48;;;;;;;8.37;3.83;;;;;;;26.61;77.27;97835.63;5051838;28;20314;-79
2022/06/23 09:48:44;;;;;;;5.80;3.60;;;;;;;26.68;75.63;97831.00;5050882;28;20219;-79
2022/06/23 09:51:29;;;;;;;8.03;3.60;;;;;;;26.72;74.86;97824.97;5052213;28;20239;-79
2022/06/23 09:54:27;;;;;;;8.93;4.17;;;;;;;26.78;74.83;97826.81;5056473;28;20216;-79
2022/06/23 09:57:19;;;;;;;7.47;3.67;;;;;;;26.92;77.62;97825.72;5053413;28;20219;-79
2022/06/23 10:00:03;;;;;;;9.63;4.20;;;;;;;27.02;79.30;97820.66;5056080;28;20220;-79
2022/06/23 10:02:44;;;;;;;6.40;3.57;;;;;;;27.02;73.93;97820.66;5056514;28;20586;-79
2022/06/23 10:05:23;;;;;;;9.53;4.20;;;;;;;26.98;74.75;97808.56;5051398;28;20219;-80
2022/06/23 10:08:06;;;;;;;7.07;3.60;;;;;;;27.03;75.31;97811.47;5047552;28;20670;-79
2022/06/23 10:10:48;;;;;;;4.97;3.37;;;;;;;27.02;69.51;97809.81;5056231;28;20653;-79
2022/06/23 10:13:37;;;;;;;8.07;3.37;;;;;;;27.12;72.18;97807.44;5052958;28;20231;-79
2022/06/23 10:16:18;;;;;;;5.73;3.43;;;;;;;27.23;73.03;97806.78;5055872;28;20224;-80
2022/06/23 10:19:03;;;;;;;6.10;3.37;;;;;;;27.34;74.46;97803.38;5055746;28;20208;-79
2022/06/23 10:21:41;;;;;;;7.23;3.80;;;;;;;27.38;71.39;97810.00;5056002;28;20574;-79
2022/06/23 10:24:21;;;;;;;5.63;3.40;;;;;;;27.45;71.70;97810.81;5056137;28;20228;-79
2022/06/23 10:27:09;;;;;;;6.25;3.72;;;;;;;27.48;71.44;97810.38;5051102;28;20241;-79
2022/06/23 10:29:52;;;;;;;4.82;3.38;;;;;;;27.49;67.21;97802.00;5049971;28;20273;-79
2022/06/23 10:32:39;;;;;;;11.00;7.30;;;;;;;27.64;74.10;97810.66;5052793;28;20218;-78
2022/06/23 10:35:27;;;;;;;7.63;4.20;;;;;;;27.66;68.66;97805.00;5052509;28;20216;-78
2022/06/23 10:38:24;;;;;;;7.32;4.25;;;;;;;27.71;67.13;97800.56;5055641;28;20240;-78
2022/06/23 10:41:18;;;;;;;7.37;3.57;;;;;;;27.78;65.54;97801.41;5052751;28;20223;-79
2022/06/23 10:43:56;;;;;;;7.60;3.80;;;;;;;27.69;66.63;97791.00;5053284;28;20208;-79
2022/06/23 10:46:26;;;;;;;8.00;4.45;;;;;;;27.78;71.73;97797.84;5055459;28;20216;-79
2022/06/23 10:49:18;;;;;;;7.47;4.18;;;;;;;27.85;70.26;97785.03;5055000;28;20223;-79
2022/06/23 10:52:00;;;;;;;5.90;3.60;;;;;;;27.91;66.18;97785.00;5055442;28;20212;-79
2022/06/23 10:54:55;;;;;;;8.88;4.40;;;;;;;27.99;69.21;97781.13;5051253;28;20214;-79
2022/06/23 10:57:39;;;;;;;7.40;4.50;;;;;;;28.05;69.44;97782.94;5051607;28;20212;-79
2022/06/23 11:00:10;;;;;;;8.90;4.47;;;;;;;28.11;67.57;97782.91;5053551;28;20218;-79
2022/06/23 11:03:10;;;;;;;8.82;4.63;;;;;;;28.28;68.66;97774.97;5054296;28;20212;-79
2022/06/23 11:05:56;;;;;;;8.85;4.53;;;;;;;28.38;69.80;97768.00;5050964;28;20223;-79
2022/06/23 11:08:45;;;;;;;9.68;4.93;;;;;;;28.50;66.53;97765.38;5051984;28;20580;-78
2022/06/23 11:11:48;;;;;;;10.35;4.30;;;;;;;28.35;62.16;97751.28;5054482;28;20236;-79
2022/06/23 11:14:27;;;;;;;6.25;4.15;;;;;;;28.29;67.87;97746.75;5051396;28;20243;-78
2022/06/23 11:17:02;;;;;;;6.63;4.00;;;;;;;28.29;66.61;97746.75;5054314;28;20212;-78
2022/06/23 11:19:41;;;;;;;8.55;4.30;;;;;;;28.33;65.05;97735.22;5052289;28;20677;-78
2022/06/23 11:22:38;;;;;;;7.93;3.63;;;;;;;28.24;61.62;97733.03;5054488;28;20212;-79
2022/06/23 11:25:20;;;;;;;9.30;4.00;;;;;;;28.08;61.26;97729.00;5054133;28;20208;-78
2022/06/23 11:27:56;;;;;;;8.07;4.37;;;;;;;28.12;68.28;97730.22;5047703;28;20208;-78
2022/06/23 11:30:30;;;;;;;7.47;4.40;;;;;;;28.28;69.40;97731.50;5047074;28;20242;-79
2022/06/23 11:33:23;;;;;;;6.93;4.80;;;;;;;28.43;65.19;97729.28;5054296;28;20223;-80
2022/06/23 11:36:18;;;;;;;10.13;4.40;;;;;;;28.51;64.73;97723.50;5049274;28;20299;-76
2022/06/23 11:38:59;;;;;;;7.07;4.18;;;;;;;28.70;62.90;97725.97;5049708;28;20236;-78
2022/06/23 11:41:59;;;;;;;7.03;3.42;;;;;;;28.61;59.04;97726.53;5052372;28;20211;-77
2022/06/23 11:44:42;;;;;;;7.43;3.90;;;;;;;28.57;62.26;97725.31;5038491;28;20254;-78
2022/06/23 11:47:16;;;;;;;6.00;3.75;;;;;;;28.60;62.28;97722.97;5049523;28;20204;-77
2022/06/23 11:49:59;;;;;;;9.27;3.88;;;;;;;28.74;63.09;97710.03;5043858;28;20241;-78
2022/06/23 11:52:42;;;;;;;8.23;4.60;;;;;;;28.92;65.24;97712.69;5032260;28;20223;-77
2022/06/23 11:55:26;;;;;;;9.30;4.63;;;;;;;29.05;63.75;97712.53;5050947;28;20580;-74
2022/06/23 11:58:33;;;;;;;7.63;5.05;;;;;;;29.12;61.64;97713.25;5053598;28;20216;-74
2022/06/23 12:01:14;;;;;;;7.00;3.80;;;;;;;29.13;59.85;97699.44;5053459;28;20208;-75
2022/06/23 12:04:18;;;;;;;8.35;3.95;;;;;;;29.16;60.44;97704.41;5053828;28;20212;-74
2022/06/23 12:06:59;;;;;;;6.78;4.78;;;;;;;29.31;62.54;97701.22;5053487;28;20222;-74
2022/06/23 12:09:30;;;;;;;6.05;3.80;;;;;;;29.22;59.87;97703.47;5053364;28;20227;-75